Hlavní strana
METAR-TAF:

METAR-TAF

Letiště :

Chartúm, Súdán

zeměpisná šířka: 15-36N, zeměpisná délka: 032-33E, výška: 382 m

Aktuální stav počasí

Zpráva byla vytvořena před 33 minutami, v 03:30 UTC
Severní vítr 14 kt
Teplota 18°C
Vlhkost vzduchu 22%
Tlak 1014 hPa
Viditelnost 10 km a více
Žádná oblačnost pod 1500 m, nevyskytují se cumulonimby.

METAR: HSSS 230330Z 36014KT CAVOK 18/M04 Q1014 NOSIG

Čas: 07:03 (04:03 UTC)

Předpověď počasí

Zpráva byla vytvořena před 5 hodinami a 3 minutami, v 23:00 UTC
Předpověď platná od 23 v 00 UTC do 24 v 06 UTC
Severoseverozápadní vítr 12 kt s nárazy do 22 kt
Dočasný
od 23 v 03 UTC do 23 v 09 UTC
Viditelnost: 6000 m

TAF: HSSS 222300Z 2300/2406 34012G22KT TEMPO 2303/2309 6000

Stav a předpovědi počasí z více než 4 000 letišť (zprávy METAR a TAF).

Červené a žluté tečky na mapě představují dostupné meteorologické stanice.

Když kurzor umístíte na tečku, zobrazí se název stanice.

Pak kliknutím zobrazíte stav a předpověď počasí.

Chcete-li změnit mapu, kliknutím na zelené tlačítko se znaménkem +mapu přiblížíte, kliknutím na zelené tlačítko se znaménkem – mapu oddálíte a kliknutím na zelené šipky přejdete na sousední mapy.


METAR-TAF: